createdAt,value
2023-05-21T00:00:10.610Z,20.0499
2023-05-21T00:01:12.406Z,20.0232
2023-05-21T00:02:14.061Z,20.0201
2023-05-21T00:03:15.925Z,20.0223
2023-05-21T00:04:17.539Z,20.0084
2023-05-21T00:05:19.248Z,19.9802
2023-05-21T00:06:21.199Z,20.0151
2023-05-21T00:07:22.685Z,20.0248
2023-05-21T00:08:24.426Z,20.0382
2023-05-21T00:09:26.168Z,20.0476
2023-05-21T00:10:27.833Z,20.0435
2023-05-21T00:11:29.580Z,20.0334
2023-05-21T00:12:31.301Z,20.0538
2023-05-21T00:13:33.003Z,20.0466
2023-05-21T00:14:34.749Z,20.0119
2023-05-21T00:15:36.670Z,20.0201
2023-05-21T00:16:38.324Z,20.0246
2023-05-21T00:17:40.112Z,20.0388
2023-05-21T00:18:41.657Z,20.0556
2023-05-21T00:19:43.338Z,20.0486
2023-05-21T00:20:45.064Z,20.0421
2023-05-21T00:21:46.788Z,20.0507
2023-05-21T00:22:48.516Z,20.0258
2023-05-21T00:23:50.261Z,20.0269
2023-05-21T00:24:51.953Z,20.0458
2023-05-21T00:25:53.693Z,20.0497
2023-05-21T00:26:55.412Z,20.0394
2023-05-21T00:27:57.115Z,20.0462
2023-05-21T00:28:58.850Z,20.0517
2023-05-21T00:30:00.573Z,20.0529
2023-05-21T00:31:02.303Z,20.0632
2023-05-21T00:32:04.096Z,20.0577
2023-05-21T00:33:05.769Z,20.0566
2023-05-21T00:34:07.490Z,20.0552
2023-05-21T00:35:09.196Z,20.0624
2023-05-21T00:36:10.893Z,20.0538
2023-05-21T00:37:12.646Z,20.0340
2023-05-21T00:38:14.362Z,20.0215
2023-05-21T00:39:16.060Z,20.0154
2023-05-21T00:40:17.802Z,20.0170
2023-05-21T00:41:19.533Z,20.0404
2023-05-21T00:42:21.235Z,20.0568
2023-05-21T00:43:22.962Z,20.0517
2023-05-21T00:44:24.705Z,20.0696
2023-05-21T00:45:26.428Z,20.0741
2023-05-21T00:46:28.144Z,20.0698
2023-05-21T00:47:30.000Z,20.0792
2023-05-21T00:48:31.594Z,20.0753
2023-05-21T00:49:33.297Z,20.0443
2023-05-21T00:50:35.018Z,20.0147
2023-05-21T00:51:36.768Z,19.9889
2023-05-21T00:52:38.559Z,20.0051
2023-05-21T00:53:40.192Z,20.0119
2023-05-21T00:54:41.941Z,20.0199
2023-05-21T00:55:43.668Z,20.0024
2023-05-21T00:56:45.398Z,19.9999
2023-05-21T00:57:47.090Z,20.0230
2023-05-21T00:58:48.830Z,20.0306
2023-05-21T00:59:50.578Z,20.0256
2023-05-21T01:00:52.304Z,20.0322
2023-05-21T01:01:54.005Z,20.0536
2023-05-21T01:02:55.780Z,20.0149
2023-05-21T01:03:57.445Z,20.0053
2023-05-21T01:04:59.159Z,20.0174
2023-05-21T01:06:00.916Z,20.0211
2023-05-21T01:07:02.621Z,20.0386
2023-05-21T01:08:04.327Z,20.0517
2023-05-21T01:09:06.070Z,20.0511
2023-05-21T01:10:07.907Z,20.0575
2023-05-21T01:11:09.485Z,20.0517
2023-05-21T01:12:11.213Z,20.0291
2023-05-21T01:13:12.961Z,20.0408
2023-05-21T01:14:14.670Z,20.0357
2023-05-21T01:15:16.384Z,20.0306
2023-05-21T01:16:18.176Z,20.0546
2023-05-21T01:17:19.866Z,20.0480
2023-05-21T01:18:21.569Z,20.0591
2023-05-21T01:19:23.334Z,20.0741
2023-05-21T01:20:25.038Z,20.0716
2023-05-21T01:21:26.729Z,20.0704
2023-05-21T01:22:28.504Z,20.0741
2023-05-21T01:23:30.203Z,20.0663
2023-05-21T01:24:31.892Z,20.0377
2023-05-21T01:25:33.755Z,20.0449
2023-05-21T01:26:35.368Z,20.0544
2023-05-21T01:27:37.074Z,20.0607
2023-05-21T01:28:38.800Z,20.0423
2023-05-21T01:29:40.534Z,20.0523
2023-05-21T01:30:42.260Z,20.0410
2023-05-21T01:31:43.983Z,20.0451
2023-05-21T01:32:45.776Z,20.0735
2023-05-21T01:33:47.483Z,20.0716
2023-05-21T01:34:49.156Z,20.0612
2023-05-21T01:35:50.856Z,20.0642
2023-05-21T01:36:52.580Z,20.0571
2023-05-21T01:37:54.330Z,20.0702
2023-05-21T01:38:56.056Z,20.0690
2023-05-21T01:39:57.753Z,20.0646
2023-05-21T01:40:59.489Z,20.0610
2023-05-21T01:42:01.203Z,20.0429
2023-05-21T01:43:02.926Z,20.0507
2023-05-21T01:44:04.703Z,20.0577
2023-05-21T01:45:06.399Z,20.0603
2023-05-21T01:46:08.138Z,20.0462
2023-05-21T01:47:09.833Z,20.0626
2023-05-21T01:48:11.565Z,20.0295
2023-05-21T01:49:13.269Z,20.0529
2023-05-21T01:50:15.013Z,20.0630
2023-05-21T01:51:16.738Z,20.0517
2023-05-21T01:52:18.427Z,20.0497
2023-05-21T01:53:20.157Z,20.0410
2023-05-21T01:54:21.901Z,20.0437
2023-05-21T01:55:23.599Z,20.0398
2023-05-21T01:56:25.327Z,20.0429
2023-05-21T01:57:27.102Z,20.0566
2023-05-21T01:58:28.772Z,20.0591
2023-05-21T01:59:30.513Z,20.0768
2023-05-21T02:00:32.245Z,20.0757
2023-05-21T02:01:33.972Z,20.0519
2023-05-21T02:02:35.812Z,20.0293
2023-05-21T02:03:37.507Z,20.0289
2023-05-21T02:04:39.131Z,20.0466
2023-05-21T02:05:40.866Z,20.0657
2023-05-21T02:06:42.573Z,20.0552
2023-05-21T02:07:44.317Z,20.0478
2023-05-21T02:08:46.013Z,20.0439
2023-05-21T02:09:47.775Z,20.0455
2023-05-21T02:10:49.463Z,20.0544
2023-05-21T02:11:50.995Z,20.0533
2023-05-21T02:12:54.847Z,20.0598
2023-05-21T02:16:05.009Z,21.3758
2023-05-21T02:17:06.595Z,20.5168
2023-05-21T02:18:08.387Z,20.2072
2023-05-21T02:19:10.250Z,20.0772
2023-05-21T02:20:11.865Z,20.0531
2023-05-21T02:21:13.525Z,20.0544
2023-05-21T02:22:15.215Z,20.0449
2023-05-21T02:23:16.946Z,20.0507
2023-05-21T02:24:18.737Z,20.0548
2023-05-21T02:25:20.428Z,20.0626
2023-05-21T02:26:22.151Z,20.0394
2023-05-21T02:27:23.856Z,20.0490
2023-05-21T02:28:25.591Z,20.0338
2023-05-21T02:29:27.317Z,20.0439
2023-05-21T02:30:29.043Z,20.0513
2023-05-21T02:31:30.744Z,20.0573
2023-05-21T02:32:32.580Z,20.0603
2023-05-21T02:33:34.290Z,20.0480
2023-05-21T02:34:35.949Z,20.0525
2023-05-21T02:35:37.837Z,20.0306
2023-05-21T02:36:39.394Z,20.0250
2023-05-21T02:37:41.118Z,20.0379
2023-05-21T02:38:42.835Z,20.0455
2023-05-21T02:39:44.573Z,20.0579
2023-05-21T02:40:46.308Z,20.0451
2023-05-21T02:41:48.005Z,20.0486
2023-05-21T02:42:49.742Z,20.0486
2023-05-21T02:43:51.461Z,20.0679
2023-05-21T02:44:53.175Z,20.0375
2023-05-21T02:45:54.957Z,20.0433
2023-05-21T02:46:56.628Z,20.0620
2023-05-21T02:47:58.429Z,20.0494
2023-05-21T02:49:00.105Z,20.0663
2023-05-21T02:50:01.826Z,20.0801
2023-05-21T02:51:03.554Z,20.0735
2023-05-21T02:52:05.247Z,20.0494
2023-05-21T02:53:06.975Z,20.0571
2023-05-21T02:54:08.720Z,20.0677
2023-05-21T02:55:10.421Z,20.0575
2023-05-21T02:56:12.162Z,20.0671
2023-05-21T02:57:13.903Z,20.0768
2023-05-21T02:58:15.608Z,20.0548
2023-05-21T02:59:17.346Z,20.0616
2023-05-21T03:00:19.089Z,20.0694
2023-05-21T03:01:20.835Z,20.0681
2023-05-21T03:02:22.758Z,20.0523
2023-05-21T03:03:24.382Z,20.0663
2023-05-21T03:04:25.974Z,20.0733
2023-05-21T03:05:27.697Z,20.0737
2023-05-21T03:06:29.440Z,20.0700
2023-05-21T03:07:31.169Z,20.0628
2023-05-21T03:08:32.872Z,20.0716
2023-05-21T03:09:34.617Z,20.0778
2023-05-21T03:10:36.350Z,20.0653
2023-05-21T03:11:38.077Z,20.0624
2023-05-21T03:12:39.792Z,20.0766
2023-05-21T03:13:41.551Z,20.0796
2023-05-21T03:14:43.263Z,20.0731
2023-05-21T03:15:44.956Z,20.0562
2023-05-21T03:16:46.731Z,20.0737
2023-05-21T03:17:48.460Z,20.0759
2023-05-21T03:18:50.174Z,20.0856
2023-05-21T03:19:51.863Z,20.0649
2023-05-21T03:20:53.661Z,20.0464
2023-05-21T03:21:55.341Z,20.0468
2023-05-21T03:22:57.069Z,20.0531
2023-05-21T03:23:58.802Z,20.0511
2023-05-21T03:25:00.489Z,20.0733
2023-05-21T03:26:02.260Z,20.0725
2023-05-21T03:27:03.972Z,20.0646
2023-05-21T03:28:05.663Z,20.0571
2023-05-21T03:29:07.420Z,20.0642
2023-05-21T03:30:09.165Z,20.0548
2023-05-21T03:31:10.839Z,20.0747
2023-05-21T03:32:12.683Z,20.0879
2023-05-21T03:33:14.324Z,20.0909
2023-05-21T03:34:16.010Z,20.1088
2023-05-21T03:35:17.763Z,20.0940
2023-05-21T03:36:19.482Z,20.0907
2023-05-21T03:37:21.196Z,20.0807
2023-05-21T03:38:22.907Z,20.0866
2023-05-21T03:39:24.657Z,20.0897
2023-05-21T03:40:26.390Z,20.0862
2023-05-21T03:41:28.116Z,20.0686
2023-05-21T03:42:29.824Z,20.0439
2023-05-21T03:43:31.565Z,20.0433
2023-05-21T03:44:33.258Z,20.0416
2023-05-21T03:45:35.135Z,20.0556
2023-05-21T03:46:36.813Z,20.0523
2023-05-21T03:47:38.547Z,20.0318
2023-05-21T03:48:40.160Z,20.0628
2023-05-21T03:49:41.898Z,20.0540
2023-05-21T03:50:43.632Z,20.0688
2023-05-21T03:51:45.324Z,20.0501
2023-05-21T03:52:47.080Z,20.0488
2023-05-21T03:53:48.800Z,20.0720
2023-05-21T03:54:50.500Z,20.0772
2023-05-21T03:55:52.236Z,20.0809
2023-05-21T03:56:53.976Z,20.0735
2023-05-21T03:57:55.693Z,20.0745
2023-05-21T03:58:57.404Z,20.0809
2023-05-21T03:59:59.173Z,20.0790
2023-05-21T04:01:00.852Z,20.0764
2023-05-21T04:02:02.572Z,20.0718
2023-05-21T04:03:04.415Z,20.0706
2023-05-21T04:04:06.222Z,20.0683
2023-05-21T04:05:07.753Z,20.0745
2023-05-21T04:06:09.508Z,20.0675
2023-05-21T04:07:11.197Z,20.0655
2023-05-21T04:08:12.957Z,20.0852
2023-05-21T04:09:14.653Z,20.0907
2023-05-21T04:10:16.368Z,20.0872
2023-05-21T04:11:18.107Z,20.0827
2023-05-21T04:12:19.853Z,20.0632
2023-05-21T04:13:21.573Z,20.0480
2023-05-21T04:14:23.311Z,20.0601
2023-05-21T04:15:25.008Z,20.0423
2023-05-21T04:16:26.741Z,20.0649
2023-05-21T04:17:28.453Z,20.0406
2023-05-21T04:18:30.245Z,20.0494
2023-05-21T04:19:31.978Z,20.0505
2023-05-21T04:20:33.644Z,20.0655
2023-05-21T04:21:35.346Z,20.0513
2023-05-21T04:22:37.060Z,20.0583
2023-05-21T04:23:38.824Z,20.0419
2023-05-21T04:24:40.499Z,20.0264
2023-05-21T04:25:42.246Z,20.0478
2023-05-21T04:26:43.968Z,20.0470
2023-05-21T04:27:45.670Z,20.0351
2023-05-21T04:28:47.449Z,20.0260
2023-05-21T04:29:50.702Z,19.9847
2023-05-21T04:30:50.861Z,19.9739
2023-05-21T04:31:52.620Z,20.0133
2023-05-21T04:32:54.315Z,20.0386
2023-05-21T04:33:56.028Z,20.0603
2023-05-21T04:34:57.733Z,20.0462
2023-05-21T04:35:59.486Z,20.0414
2023-05-21T04:37:01.183Z,20.0571
2023-05-21T04:38:04.194Z,20.0780
2023-05-21T04:40:05.504Z,21.4681
2023-05-21T04:41:07.158Z,20.5825
2023-05-21T04:42:08.879Z,20.2423
2023-05-21T04:43:10.711Z,20.1127
2023-05-21T04:44:12.327Z,20.0823
2023-05-21T04:45:14.031Z,20.0585
2023-05-21T04:46:15.865Z,20.0585
2023-05-21T04:47:17.545Z,20.0718
2023-05-21T04:48:19.271Z,20.0862
2023-05-21T04:49:20.979Z,20.0762
2023-05-21T04:50:22.669Z,20.0838
2023-05-21T04:51:24.400Z,20.0965
2023-05-21T04:52:26.093Z,20.0801
2023-05-21T04:53:27.824Z,20.0671
2023-05-21T04:54:29.581Z,20.0681
2023-05-21T04:55:31.269Z,20.0548
2023-05-21T04:56:33.030Z,20.0751
2023-05-21T04:57:34.734Z,20.0599
2023-05-21T04:58:36.438Z,20.0640
2023-05-21T04:59:38.155Z,20.0626
2023-05-21T05:00:39.930Z,20.0359
2023-05-21T05:01:41.604Z,20.0531
2023-05-21T05:02:43.538Z,20.0375
2023-05-21T05:03:45.127Z,20.0310
2023-05-21T05:04:46.809Z,20.0151
2023-05-21T05:05:48.513Z,20.0544
2023-05-21T05:06:50.244Z,20.0716
2023-05-21T05:07:51.983Z,20.0591
2023-05-21T05:08:53.674Z,20.0624
2023-05-21T05:09:55.416Z,20.0318
2023-05-21T05:10:57.153Z,20.0529
2023-05-21T05:11:58.842Z,20.0755
2023-05-21T05:13:00.567Z,20.0924
2023-05-21T05:14:02.308Z,20.0667
2023-05-21T05:15:04.004Z,20.0755
2023-05-21T05:16:05.759Z,20.0700
2023-05-21T05:17:07.478Z,20.0833
2023-05-21T05:18:09.218Z,20.0891
2023-05-21T05:19:10.935Z,20.0981
2023-05-21T05:20:12.651Z,20.1070
2023-05-21T05:21:14.342Z,20.0811
2023-05-21T05:22:16.089Z,20.0552
2023-05-21T05:23:17.802Z,20.0581
2023-05-21T05:24:19.536Z,20.0762
2023-05-21T05:25:21.254Z,20.0821
2023-05-21T05:26:22.961Z,20.0860
2023-05-21T05:27:24.697Z,20.0819
2023-05-21T05:28:26.426Z,20.0640
2023-05-21T05:29:28.135Z,20.0739
2023-05-21T05:30:29.856Z,20.0466
2023-05-21T05:31:31.653Z,20.0447
2023-05-21T05:32:33.401Z,20.0591
2023-05-21T05:33:35.021Z,20.0427
2023-05-21T05:34:36.738Z,20.0630
2023-05-21T05:35:38.572Z,20.0751
2023-05-21T05:36:40.201Z,20.0872
2023-05-21T05:37:41.939Z,20.1002
2023-05-21T05:38:43.621Z,20.0891
2023-05-21T05:39:45.341Z,20.0768
2023-05-21T05:40:47.056Z,20.0872
2023-05-21T05:41:48.809Z,20.0741
2023-05-21T05:42:50.521Z,20.0741
2023-05-21T05:43:52.243Z,20.0716
2023-05-21T05:44:53.968Z,20.0901
2023-05-21T05:45:55.716Z,20.0686
2023-05-21T05:46:57.385Z,20.0626
2023-05-21T05:47:59.138Z,20.0844
2023-05-21T05:49:00.844Z,20.1002
2023-05-21T05:50:02.569Z,20.1068
2023-05-21T05:51:04.287Z,20.0996
2023-05-21T05:52:05.995Z,20.1063
2023-05-21T05:53:07.718Z,20.0977
2023-05-21T05:54:09.442Z,20.1043
2023-05-21T05:55:11.357Z,20.1103
2023-05-21T05:56:12.865Z,20.1211
2023-05-21T05:57:14.597Z,20.1094
2023-05-21T05:58:16.352Z,20.0928
2023-05-21T05:59:18.066Z,20.0977
2023-05-21T06:00:19.783Z,20.1224
2023-05-21T06:01:21.487Z,20.1139
2023-05-21T06:02:23.338Z,20.1139
2023-05-21T06:03:25.034Z,20.1098
2023-05-21T06:04:26.667Z,20.1057
2023-05-21T06:05:28.408Z,20.1070
2023-05-21T06:06:30.093Z,20.1084
2023-05-21T06:07:31.814Z,20.1082
2023-05-21T06:08:34.234Z,20.1168
2023-05-21T06:09:35.273Z,20.1174
2023-05-21T06:10:36.998Z,20.0969
2023-05-21T06:11:38.737Z,20.1004
2023-05-21T06:12:40.426Z,20.0940
2023-05-21T06:13:42.156Z,20.1125
2023-05-21T06:14:45.220Z,20.1257
2023-05-21T06:16:46.508Z,21.5305
2023-05-21T06:17:48.204Z,20.6108
2023-05-21T06:18:49.867Z,20.2645
2023-05-21T06:19:51.692Z,20.1620
2023-05-21T06:20:53.325Z,20.1259
2023-05-21T06:21:55.035Z,20.1349
2023-05-21T06:22:56.772Z,20.1320
2023-05-21T06:23:58.478Z,20.1277
2023-05-21T06:25:00.247Z,20.1487
2023-05-21T06:26:01.927Z,20.1509
2023-05-21T06:27:03.637Z,20.1581
2023-05-21T06:28:05.391Z,20.1417
2023-05-21T06:29:07.111Z,20.1289
2023-05-21T06:30:08.809Z,20.1431
2023-05-21T06:31:10.533Z,20.1252
2023-05-21T06:32:12.279Z,20.1308
2023-05-21T06:33:14.050Z,20.1417
2023-05-21T06:34:15.728Z,20.1425
2023-05-21T06:35:17.423Z,20.1503
2023-05-21T06:36:19.147Z,20.1542
2023-05-21T06:37:20.862Z,20.1612
2023-05-21T06:38:22.609Z,20.1480
2023-05-21T06:39:24.334Z,20.1587
2023-05-21T06:40:26.051Z,20.1645
2023-05-21T06:41:27.752Z,20.1499
2023-05-21T06:42:29.513Z,20.1591
2023-05-21T06:43:31.221Z,20.1686
2023-05-21T06:44:32.937Z,20.1593
2023-05-21T06:45:34.967Z,20.1626
2023-05-21T06:46:36.398Z,20.1456
2023-05-21T06:47:38.119Z,20.1302
2023-05-21T06:48:39.832Z,20.1269
2023-05-21T06:49:41.547Z,20.1462
2023-05-21T06:50:43.266Z,20.1489
2023-05-21T06:51:44.998Z,20.1499
2023-05-21T06:52:46.687Z,20.1439
2023-05-21T06:53:48.421Z,20.1220
2023-05-21T06:54:50.138Z,20.1207
2023-05-21T06:55:51.872Z,20.1211
2023-05-21T06:56:53.585Z,20.1337
2023-05-21T06:57:55.284Z,20.1218
2023-05-21T06:58:57.013Z,20.1382
2023-05-21T06:59:58.736Z,20.1365
2023-05-21T07:01:00.493Z,20.1361
2023-05-21T07:02:04.379Z,20.1511
2023-05-21T07:03:03.946Z,20.1505
2023-05-21T07:04:05.629Z,20.1657
2023-05-21T07:05:07.369Z,20.1651
2023-05-21T07:06:09.079Z,20.1721
2023-05-21T07:07:10.795Z,20.1661
2023-05-21T07:08:12.501Z,20.1782
2023-05-21T07:09:14.269Z,20.1495
2023-05-21T07:10:15.973Z,20.1552
2023-05-21T07:11:17.710Z,20.1378
2023-05-21T07:12:19.413Z,20.1544
2023-05-21T07:13:21.140Z,20.1534
2023-05-21T07:14:22.860Z,20.1635
2023-05-21T07:15:24.571Z,20.1593
2023-05-21T07:16:26.344Z,20.1766
2023-05-21T07:17:28.086Z,20.1928
2023-05-21T07:18:29.752Z,20.1920
2023-05-21T07:19:31.566Z,20.1945
2023-05-21T07:20:33.191Z,20.1904
2023-05-21T07:21:34.902Z,20.1571
2023-05-21T07:22:36.669Z,20.1515
2023-05-21T07:23:38.386Z,20.1616
2023-05-21T07:24:40.098Z,20.1682
2023-05-21T07:25:41.800Z,20.1561
2023-05-21T07:26:43.524Z,20.1704
2023-05-21T07:27:45.237Z,20.1653
2023-05-21T07:28:47.028Z,20.1803
2023-05-21T07:29:48.705Z,20.1852
2023-05-21T07:30:50.458Z,20.1951
2023-05-21T07:31:52.122Z,20.2006
2023-05-21T07:32:53.881Z,20.1963
2023-05-21T07:33:55.594Z,20.1978
2023-05-21T07:34:57.333Z,20.1692
2023-05-21T07:35:59.057Z,20.1663
2023-05-21T07:37:00.753Z,20.1988
2023-05-21T07:38:02.521Z,20.2056
2023-05-21T07:39:04.203Z,20.1801
2023-05-21T07:40:05.927Z,20.1978
2023-05-21T07:41:07.658Z,20.2101
2023-05-21T07:42:09.395Z,20.1978
2023-05-21T07:43:11.123Z,20.1897
2023-05-21T07:44:12.841Z,20.1904
2023-05-21T07:45:14.550Z,20.2064
2023-05-21T07:46:16.320Z,20.2078
2023-05-21T07:47:18.012Z,20.2049
2023-05-21T07:48:19.745Z,20.2039
2023-05-21T07:49:21.465Z,20.2070
2023-05-21T07:50:23.184Z,20.2226
2023-05-21T07:51:24.917Z,20.2189
2023-05-21T07:52:26.662Z,20.2142
2023-05-21T07:53:28.328Z,20.2111
2023-05-21T07:54:30.084Z,20.2130
2023-05-21T07:55:31.790Z,20.1996
2023-05-21T07:56:33.513Z,20.1955
2023-05-21T07:57:35.266Z,20.1893
2023-05-21T07:58:36.951Z,20.2006
2023-05-21T07:59:38.691Z,20.1826
2023-05-21T08:00:40.576Z,20.2093
2023-05-21T08:01:42.141Z,20.2097
2023-05-21T08:02:44.025Z,20.1957
2023-05-21T08:03:45.695Z,20.2045
2023-05-21T08:04:47.379Z,20.2150
2023-05-21T08:05:49.072Z,20.2043
2023-05-21T08:06:50.755Z,20.2012
2023-05-21T08:07:52.479Z,20.1980
2023-05-21T08:08:54.180Z,20.2019
2023-05-21T08:09:55.909Z,20.1963
2023-05-21T08:10:57.643Z,20.1971
2023-05-21T08:11:59.373Z,20.2107
2023-05-21T08:13:01.073Z,20.2084
2023-05-21T08:14:02.804Z,20.2066
2023-05-21T08:15:04.536Z,20.2121
2023-05-21T08:16:06.279Z,20.2041
2023-05-21T08:17:08.065Z,20.1692
2023-05-21T08:18:09.853Z,20.1836
2023-05-21T08:19:11.503Z,20.1809
2023-05-21T08:20:13.149Z,20.1760
2023-05-21T08:21:14.879Z,20.1904
2023-05-21T08:22:16.595Z,20.1924
2023-05-21T08:23:18.310Z,20.1920
2023-05-21T08:24:20.044Z,20.1922
2023-05-21T08:25:21.767Z,20.1945
2023-05-21T08:26:23.470Z,20.1846
2023-05-21T08:27:25.203Z,20.1515
2023-05-21T08:28:26.935Z,20.1725
2023-05-21T08:29:28.665Z,20.1797
2023-05-21T08:30:30.377Z,20.1745
2023-05-21T08:31:32.098Z,20.1811
2023-05-21T08:32:33.874Z,20.1889
2023-05-21T08:33:35.536Z,20.1747
2023-05-21T08:34:37.259Z,20.1721
2023-05-21T08:35:39.134Z,20.1834
2023-05-21T08:36:40.685Z,20.1791
2023-05-21T08:37:42.406Z,20.1906
2023-05-21T08:38:44.175Z,20.1713
2023-05-21T08:39:45.867Z,20.1686
2023-05-21T08:40:47.596Z,20.1665
2023-05-21T08:41:49.330Z,20.1789
2023-05-21T08:42:51.029Z,20.1854
2023-05-21T08:43:54.329Z,20.1842
2023-05-21T08:48:44.782Z,21.4426
2023-05-21T08:49:46.410Z,20.6069
2023-05-21T08:50:48.128Z,20.2912
2023-05-21T08:51:49.947Z,20.1850
2023-05-21T08:52:51.594Z,20.1493
2023-05-21T08:53:53.292Z,20.1577
2023-05-21T08:54:55.021Z,20.1645
2023-05-21T08:55:56.835Z,20.1581
2023-05-21T08:56:58.495Z,20.1745
2023-05-21T08:58:00.203Z,20.1729
2023-05-21T08:59:01.932Z,20.1632
2023-05-21T09:00:03.630Z,20.1737
2023-05-21T09:01:05.423Z,20.1727
2023-05-21T09:02:07.175Z,20.1454
2023-05-21T09:03:08.911Z,20.1478
2023-05-21T09:04:20.292Z,20.1700
2023-05-21T09:05:12.257Z,20.1727
2023-05-21T09:06:13.977Z,20.1776
2023-05-21T09:07:15.719Z,20.1821
2023-05-21T09:08:17.521Z,20.1546
2023-05-21T09:09:19.148Z,20.1690
2023-05-21T09:10:20.958Z,20.1450
2023-05-21T09:11:22.572Z,20.1645
2023-05-21T09:12:24.294Z,20.1743
2023-05-21T09:13:26.100Z,20.1860
2023-05-21T09:14:27.754Z,20.1618
2023-05-21T09:15:29.516Z,20.1513
2023-05-21T09:16:31.215Z,20.1441
2023-05-21T09:17:32.961Z,20.1454
2023-05-21T09:18:34.618Z,20.1589
2023-05-21T09:19:36.523Z,20.1497
2023-05-21T09:20:38.065Z,20.1663
2023-05-21T09:21:39.793Z,20.1608
2023-05-21T09:22:41.547Z,20.1437
2023-05-21T09:23:43.254Z,20.1421
2023-05-21T09:24:44.984Z,20.1228
2023-05-21T09:25:46.780Z,20.1279
2023-05-21T09:26:48.396Z,20.1415
2023-05-21T09:27:50.120Z,20.1554
2023-05-21T09:28:51.847Z,20.1801
2023-05-21T09:29:53.578Z,20.1390
2023-05-21T09:30:55.311Z,20.1363
2023-05-21T09:31:57.148Z,20.1534
2023-05-21T09:32:58.782Z,20.1534
2023-05-21T09:34:00.439Z,20.1680
2023-05-21T09:35:02.175Z,20.1614
2023-05-21T09:36:03.907Z,20.1604
2023-05-21T09:37:08.537Z,20.1524
2023-05-21T09:39:15.937Z,21.5420
2023-05-21T09:40:17.582Z,20.6572
2023-05-21T09:41:21.959Z,20.3142
2023-05-21T09:45:15.715Z,21.4254
2023-05-21T09:46:17.380Z,20.5769
2023-05-21T09:47:19.068Z,20.2512
2023-05-21T09:48:20.888Z,20.1363
2023-05-21T09:49:22.522Z,20.1388
2023-05-21T09:50:24.234Z,20.1485
2023-05-21T09:51:25.963Z,20.1242
2023-05-21T09:52:27.774Z,20.1320
2023-05-21T09:53:29.455Z,20.1554
2023-05-21T09:54:31.152Z,20.1610
2023-05-21T09:55:32.891Z,20.1711
2023-05-21T09:56:34.629Z,20.1731
2023-05-21T09:57:36.314Z,20.1676
2023-05-21T09:58:38.167Z,20.1770
2023-05-21T09:59:39.800Z,20.1780
2023-05-21T10:00:41.510Z,20.1893
2023-05-21T10:01:43.273Z,20.1815
2023-05-21T10:02:44.982Z,20.1811
2023-05-21T10:03:48.122Z,20.1875
2023-05-21T10:09:35.177Z,21.4532
2023-05-21T10:10:37.003Z,20.6094
2023-05-21T10:11:38.540Z,20.2961
2023-05-21T10:12:40.352Z,20.1984
2023-05-21T10:13:41.995Z,20.1805
2023-05-21T10:14:43.737Z,20.1667
2023-05-21T10:15:45.445Z,20.1616
2023-05-21T10:16:47.245Z,20.1928
2023-05-21T10:17:49.057Z,20.2113
2023-05-21T10:18:50.618Z,20.2130
2023-05-21T10:19:52.350Z,20.2109
2023-05-21T10:20:54.056Z,20.2267
2023-05-21T10:21:55.758Z,20.2409
2023-05-21T10:22:57.476Z,20.2594
2023-05-21T10:23:59.312Z,20.2625
2023-05-21T10:25:00.965Z,20.2542
2023-05-21T10:26:02.668Z,20.2586
2023-05-21T10:27:04.366Z,20.2526
2023-05-21T10:28:06.092Z,20.2612
2023-05-21T10:29:07.822Z,20.2838
2023-05-21T10:30:09.624Z,20.3017
2023-05-21T10:31:11.264Z,20.2953
2023-05-21T10:32:13.036Z,20.2980
2023-05-21T10:33:14.731Z,20.2855
2023-05-21T10:34:16.459Z,20.2883
2023-05-21T10:35:18.154Z,20.3068
2023-05-21T10:36:19.944Z,20.3083
2023-05-21T10:37:21.606Z,20.3116
2023-05-21T10:38:23.332Z,20.3276
2023-05-21T10:39:25.052Z,20.3202
2023-05-21T10:40:26.769Z,20.3214
2023-05-21T10:41:28.489Z,20.3208
2023-05-21T10:42:30.271Z,20.3337
2023-05-21T10:43:31.946Z,20.3346
2023-05-21T10:44:33.669Z,20.3204
2023-05-21T10:45:35.389Z,20.3101
2023-05-21T10:46:37.117Z,20.3074
2023-05-21T10:47:38.859Z,20.3368
2023-05-21T10:48:40.624Z,20.3072
2023-05-21T10:49:42.253Z,20.2920
2023-05-21T10:50:44.011Z,20.3050
2023-05-21T10:51:45.721Z,20.3307
2023-05-21T10:52:47.458Z,20.3419
2023-05-21T10:53:49.206Z,20.3393
2023-05-21T10:54:50.867Z,20.3335
2023-05-21T10:55:52.626Z,20.3463
2023-05-21T10:56:54.337Z,20.3604
2023-05-21T10:57:56.067Z,20.3543
2023-05-21T10:58:57.775Z,20.3728
2023-05-21T10:59:59.591Z,20.3641
2023-05-21T11:01:01.244Z,20.3760
2023-05-21T11:02:02.982Z,20.3487
2023-05-21T11:03:04.799Z,20.3600
2023-05-21T11:04:06.389Z,20.3567
2023-05-21T11:05:08.121Z,20.3652
2023-05-21T11:06:09.913Z,20.3438
2023-05-21T11:07:11.578Z,20.3358
2023-05-21T11:08:13.301Z,20.3471
2023-05-21T11:09:15.031Z,20.3491
2023-05-21T11:10:16.744Z,20.3684
2023-05-21T11:11:18.481Z,20.3855
2023-05-21T11:12:20.291Z,20.3849
2023-05-21T11:13:21.973Z,20.3888
2023-05-21T11:14:23.627Z,20.3804
2023-05-21T11:15:25.378Z,20.3631
2023-05-21T11:16:27.117Z,20.3491
2023-05-21T11:17:28.853Z,20.3518
2023-05-21T11:18:30.635Z,20.3419
2023-05-21T11:19:33.898Z,20.3235
2023-05-21T11:24:35.317Z,21.7087
2023-05-21T11:25:36.895Z,20.8298
2023-05-21T11:26:38.631Z,20.5141
2023-05-21T11:27:40.451Z,20.4256
2023-05-21T11:28:42.082Z,20.3917
2023-05-21T11:29:43.836Z,20.3917
2023-05-21T11:30:45.749Z,20.3999
2023-05-21T11:31:47.359Z,20.4114
2023-05-21T11:32:49.086Z,20.4270
2023-05-21T11:33:50.750Z,20.4126
2023-05-21T11:34:52.458Z,20.4054
2023-05-21T11:35:54.185Z,20.4101
2023-05-21T11:36:55.913Z,20.4175
2023-05-21T11:37:57.614Z,20.4091
2023-05-21T11:38:59.412Z,20.4062
2023-05-21T11:40:01.160Z,20.4069
2023-05-21T11:41:02.827Z,20.4153
2023-05-21T11:42:04.885Z,20.4186
2023-05-21T11:43:06.245Z,20.4120
2023-05-21T11:44:07.979Z,20.3793
2023-05-21T11:45:09.798Z,20.3841
2023-05-21T11:46:11.492Z,20.3912
2023-05-21T11:47:13.176Z,20.3841
2023-05-21T11:48:14.910Z,20.4161
2023-05-21T11:49:16.611Z,20.4177
2023-05-21T11:50:18.451Z,20.4270
2023-05-21T11:51:20.091Z,20.4167
2023-05-21T11:52:21.807Z,20.4241
2023-05-21T11:53:23.499Z,20.4307
2023-05-21T11:54:25.224Z,20.4192
2023-05-21T11:55:26.971Z,20.4239
2023-05-21T11:56:28.795Z,20.4196
2023-05-21T11:57:30.390Z,20.4216
2023-05-21T11:58:32.482Z,20.4264
2023-05-21T11:59:33.840Z,20.4153
2023-05-21T12:00:35.788Z,20.4422
2023-05-21T12:01:37.288Z,20.4498
2023-05-21T12:02:39.141Z,20.4375
2023-05-21T12:03:40.832Z,20.4210
2023-05-21T12:04:42.484Z,20.4245
2023-05-21T12:05:44.187Z,20.4145
2023-05-21T12:06:45.917Z,20.4184
2023-05-21T12:07:47.640Z,20.4301
2023-05-21T12:08:49.439Z,20.4481
2023-05-21T12:09:51.112Z,20.4477
2023-05-21T12:10:52.802Z,20.4529
2023-05-21T12:11:54.530Z,20.4442
2023-05-21T12:12:57.507Z,20.4418
2023-05-21T12:14:58.875Z,21.8440
2023-05-21T12:16:00.569Z,20.9467
2023-05-21T12:17:02.254Z,20.5923
2023-05-21T12:18:04.117Z,20.4757
2023-05-21T12:19:05.756Z,20.4385
2023-05-21T12:20:07.483Z,20.4210
2023-05-21T12:21:10.573Z,20.4348
2023-05-21T12:22:10.976Z,20.4430
2023-05-21T12:23:12.617Z,20.4529
2023-05-21T12:24:14.337Z,20.4484
2023-05-21T12:25:16.082Z,20.4344
2023-05-21T12:26:17.807Z,20.4379
2023-05-21T12:27:19.515Z,20.4479
2023-05-21T12:28:21.350Z,20.4336
2023-05-21T12:29:22.962Z,20.4301
2023-05-21T12:30:24.707Z,20.4506
2023-05-21T12:31:26.444Z,20.4356
2023-05-21T12:32:28.186Z,20.4432
2023-05-21T12:33:29.954Z,20.4486
2023-05-21T12:34:31.600Z,20.4666
2023-05-21T12:35:33.381Z,20.4697
2023-05-21T12:36:35.062Z,20.4765
2023-05-21T12:37:36.793Z,20.4529
2023-05-21T12:38:38.490Z,20.4305
2023-05-21T12:39:40.348Z,20.4301
2023-05-21T12:40:42.002Z,20.4420
2023-05-21T12:41:43.713Z,20.4442
2023-05-21T12:42:45.417Z,20.4167
2023-05-21T12:43:47.169Z,20.4208
2023-05-21T12:44:48.870Z,20.4003
2023-05-21T12:45:50.696Z,20.4258
2023-05-21T12:46:52.321Z,20.4313
2023-05-21T12:47:54.074Z,20.4237